createdAt,value
2023-04-11T00:00:36.401Z,100806.41
2023-04-11T00:05:40.111Z,100824.19
2023-04-11T00:10:45.906Z,100816.34
2023-04-11T00:15:53.451Z,100817.69
2023-04-11T00:20:57.142Z,100814.66
2023-04-11T00:26:02.467Z,100823.78
2023-04-11T00:31:07.008Z,100834.53
2023-04-11T00:36:12.056Z,100826.00
2023-04-11T00:41:17.265Z,100840.75
2023-04-11T00:46:22.645Z,100838.78
2023-04-11T00:51:26.940Z,100839.06
2023-04-11T00:56:32.243Z,100843.94
2023-04-11T01:01:36.393Z,100842.59
2023-04-11T01:06:41.717Z,100833.16
2023-04-11T01:11:46.929Z,100827.94
2023-04-11T01:16:51.408Z,100828.03
2023-04-11T01:21:57.460Z,100826.78
2023-04-11T01:27:03.722Z,100831.59
2023-04-11T01:32:07.995Z,100819.19
2023-04-11T01:37:11.891Z,100836.47
2023-04-11T01:42:17.469Z,100838.81
2023-04-11T01:47:21.247Z,100847.28
2023-04-11T01:52:26.597Z,100854.03
2023-04-11T01:57:31.980Z,100849.66
2023-04-11T02:02:35.744Z,100854.81
2023-04-11T02:07:41.203Z,100858.13
2023-04-11T02:12:46.526Z,100873.28
2023-04-11T02:17:54.139Z,100864.50
2023-04-11T02:22:58.707Z,100874.81
2023-04-11T02:28:05.114Z,100873.84
2023-04-11T02:33:10.629Z,100888.97
2023-04-11T02:38:14.414Z,100881.78
2023-04-11T02:43:19.477Z,100877.37
2023-04-11T02:48:23.194Z,100903.66
2023-04-11T02:53:27.273Z,100878.09
2023-04-11T02:58:32.976Z,100890.00
2023-04-11T03:03:39.183Z,100897.72
2023-04-11T03:08:44.091Z,100905.22
2023-04-11T03:13:50.068Z,100902.63
2023-04-11T03:18:54.262Z,100910.19
2023-04-11T03:23:58.567Z,100901.56
2023-04-11T03:29:03.819Z,100920.41
2023-04-11T03:34:08.829Z,100924.94
2023-04-11T03:39:14.792Z,100920.09
2023-04-11T03:44:20.172Z,100933.72
2023-04-11T03:49:24.286Z,100929.75
2023-04-11T03:54:28.497Z,100939.47
2023-04-11T03:59:33.988Z,100947.16
2023-04-11T04:04:38.963Z,100945.47
2023-04-11T04:09:43.748Z,100949.84
2023-04-11T04:14:49.344Z,100965.84
2023-04-11T04:19:53.476Z,100964.97
2023-04-11T04:24:58.940Z,100963.81
2023-04-11T04:30:05.103Z,100970.56
2023-04-11T04:35:10.251Z,100974.38
2023-04-11T04:40:15.962Z,100978.59
2023-04-11T04:45:23.499Z,100991.97
2023-04-11T04:50:27.651Z,101001.12
2023-04-11T04:55:31.693Z,101012.84
2023-04-11T05:00:36.956Z,101015.41
2023-04-11T05:05:44.697Z,101033.06
2023-04-11T05:10:49.100Z,101024.19
2023-04-11T05:15:56.093Z,101029.28
2023-04-11T05:21:02.528Z,101041.16
2023-04-11T05:26:08.029Z,101029.69
2023-04-11T05:31:14.218Z,101040.78
2023-04-11T05:36:18.482Z,101038.41
2023-04-11T05:41:22.391Z,101043.34
2023-04-11T05:46:29.309Z,101058.09
2023-04-11T05:51:33.182Z,101056.50
2023-04-11T05:56:39.676Z,101069.75
2023-04-11T06:01:44.839Z,101087.22
2023-04-11T06:06:48.702Z,101086.62
2023-04-11T06:11:52.417Z,101093.97
2023-04-11T06:16:57.535Z,101094.44
2023-04-11T06:22:01.529Z,101102.19
2023-04-11T06:27:05.861Z,101101.81
2023-04-11T06:32:12.601Z,101101.97
2023-04-11T06:37:16.440Z,101110.63
2023-04-11T06:42:20.244Z,101120.09
2023-04-11T06:47:29.182Z,101124.47
2023-04-11T06:52:33.001Z,101119.03
2023-04-11T06:57:36.716Z,101130.84
2023-04-11T07:02:42.008Z,101132.81
2023-04-11T07:07:45.859Z,101132.34
2023-04-11T07:12:49.534Z,101146.22
2023-04-11T07:17:54.809Z,101154.50
2023-04-11T07:22:58.710Z,101152.94
2023-04-11T07:28:02.402Z,101152.84
2023-04-11T07:33:07.549Z,101161.25
2023-04-11T07:38:12.536Z,101165.50
2023-04-11T07:43:16.254Z,101174.16
2023-04-11T07:48:22.301Z,101169.09
2023-04-11T07:53:26.879Z,101170.59
2023-04-11T07:58:30.842Z,101162.84
2023-04-11T08:03:36.192Z,101184.59
2023-04-11T08:08:40.052Z,101183.25
2023-04-11T08:13:43.982Z,101187.31
2023-04-11T08:18:49.128Z,101186.31
2023-04-11T08:23:52.987Z,101200.69
2023-04-11T08:28:56.768Z,101197.09
2023-04-11T08:34:03.878Z,101206.19
2023-04-11T08:39:09.006Z,101227.88
2023-04-11T08:44:13.137Z,101221.44
2023-04-11T08:49:18.314Z,101221.44
2023-04-11T08:54:22.026Z,101222.31
2023-04-11T08:59:26.310Z,101213.72
2023-04-11T09:04:40.353Z,101223.16
2023-04-11T09:09:44.252Z,101220.47
2023-04-11T09:14:48.154Z,101221.09
2023-04-11T09:19:53.329Z,101221.00
2023-04-11T09:25:03.724Z,101235.78
2023-04-11T09:30:20.149Z,101230.19
2023-04-11T09:35:28.510Z,101240.78
2023-04-11T09:40:42.570Z,101250.16
2023-04-11T09:45:54.065Z,101249.78
2023-04-11T09:51:01.847Z,101248.59
2023-04-11T09:56:06.951Z,101266.69
2023-04-11T10:01:11.455Z,101240.22
2023-04-11T10:06:24.051Z,101257.63
2023-04-11T10:11:28.313Z,101262.88
2023-04-11T10:16:34.276Z,101269.91
2023-04-11T10:21:42.917Z,101264.81
2023-04-11T10:26:50.030Z,101251.34
2023-04-11T10:32:11.578Z,101260.37
2023-04-11T10:37:17.100Z,101245.38
2023-04-11T10:42:30.433Z,101245.31
2023-04-11T10:47:34.295Z,101243.37
2023-04-11T10:52:39.924Z,101248.59
2023-04-11T10:58:05.673Z,101241.53
2023-04-11T11:03:15.596Z,101239.84
2023-04-11T11:08:30.616Z,101244.53
2023-04-11T11:13:41.400Z,101244.47
2023-04-11T11:18:49.449Z,101253.13
2023-04-11T11:23:59.310Z,101237.06
2023-04-11T11:29:03.531Z,101256.06
2023-04-11T11:39:15.842Z,101262.53
2023-04-11T11:44:23.904Z,101262.19
2023-04-11T11:49:27.465Z,101253.44
2023-04-11T11:54:44.293Z,101278.09
2023-04-11T11:59:54.174Z,101277.22
2023-04-11T12:04:59.932Z,101256.78
2023-04-11T12:10:10.810Z,101292.19
2023-04-11T12:15:16.127Z,101280.44
2023-04-11T12:20:23.924Z,101276.06
2023-04-11T12:25:29.381Z,101280.59
2023-04-11T12:30:33.341Z,101267.50
2023-04-11T12:35:37.054Z,101271.69
2023-04-11T12:40:42.139Z,101276.16
2023-04-11T12:45:45.849Z,101266.88
2023-04-11T12:50:49.579Z,101268.56
2023-04-11T12:55:54.694Z,101281.06
2023-04-11T13:00:59.469Z,101283.66
2023-04-11T13:06:03.209Z,101258.06
2023-04-11T13:11:08.668Z,101265.19
2023-04-11T13:16:12.814Z,101252.94
2023-04-11T13:21:16.753Z,101250.97
2023-04-11T13:26:21.792Z,101258.22
2023-04-11T13:31:26.757Z,101238.84
2023-04-11T13:36:32.215Z,101239.50
2023-04-11T13:41:37.357Z,101230.44
2023-04-11T13:46:41.080Z,101238.19
2023-04-11T13:51:44.870Z,101234.50
2023-04-11T13:56:50.084Z,101222.09
2023-04-11T14:01:53.888Z,101225.25
2023-04-11T14:06:57.649Z,101203.28
2023-04-11T14:12:03.033Z,101207.22
2023-04-11T14:17:06.771Z,101192.28
2023-04-11T14:22:10.737Z,101192.78
2023-04-11T14:27:15.844Z,101176.37
2023-04-11T14:32:19.640Z,101191.25
2023-04-11T14:37:23.361Z,101171.31
2023-04-11T14:42:28.580Z,101170.28
2023-04-11T14:47:32.556Z,101160.34
2023-04-11T14:52:36.302Z,101158.91
2023-04-11T14:57:46.370Z,101166.44
2023-04-11T15:02:53.004Z,101151.72
2023-04-11T15:07:56.809Z,101141.34
2023-04-11T15:13:02.063Z,101146.56
2023-04-11T15:18:26.932Z,101129.00
2023-04-11T15:23:31.043Z,101131.63
2023-04-11T15:28:37.836Z,101129.94
2023-04-11T15:33:41.819Z,101133.91
2023-04-11T15:38:46.064Z,101125.37
2023-04-11T15:43:51.151Z,101113.34
2023-04-11T15:48:54.829Z,101118.44
2023-04-11T15:53:58.788Z,101114.56
2023-04-11T15:59:03.962Z,101105.97
2023-04-11T16:04:07.762Z,101110.50
2023-04-11T16:09:12.300Z,101101.03
2023-04-11T16:14:17.411Z,101090.03
2023-04-11T16:19:21.111Z,101081.75
2023-04-11T16:24:25.929Z,101069.09
2023-04-11T16:29:31.145Z,101072.41
2023-04-11T16:34:34.881Z,101062.56
2023-04-11T16:39:38.639Z,101052.16
2023-04-11T16:44:43.758Z,101051.25
2023-04-11T16:49:47.546Z,101055.75
2023-04-11T16:54:51.762Z,101050.03
2023-04-11T16:59:57.070Z,101039.56
2023-04-11T17:05:00.816Z,101038.25
2023-04-11T17:10:05.242Z,101038.03
2023-04-11T17:15:11.241Z,101030.03
2023-04-11T17:20:14.998Z,101017.97
2023-04-11T17:25:18.786Z,101013.31
2023-04-11T17:30:24.087Z,101013.72
2023-04-11T17:35:28.911Z,101003.06
2023-04-11T17:40:32.905Z,101005.81
2023-04-11T17:45:38.154Z,101009.00
2023-04-11T17:50:46.048Z,100989.97
2023-04-11T17:55:50.068Z,100987.13
2023-04-11T18:00:57.027Z,100974.34
2023-04-11T18:06:01.031Z,100967.81
2023-04-11T18:11:05.133Z,100968.53
2023-04-11T18:16:11.004Z,100948.81
2023-04-11T18:21:15.881Z,100955.94
2023-04-11T18:26:19.603Z,100950.38
2023-04-11T18:31:24.698Z,100945.31
2023-04-11T18:36:28.556Z,100934.28
2023-04-11T18:41:32.487Z,100940.78
2023-04-11T18:46:37.815Z,100942.50
2023-04-11T18:51:41.553Z,100946.25
2023-04-11T18:56:47.976Z,100945.53
2023-04-11T19:01:54.562Z,100943.03
2023-04-11T19:06:59.011Z,100940.88
2023-04-11T19:12:02.763Z,100933.66
2023-04-11T19:17:07.912Z,100931.19
2023-04-11T19:22:11.869Z,100937.09
2023-04-11T19:27:18.356Z,100930.09
2023-04-11T19:32:23.495Z,100915.09
2023-04-11T19:37:27.211Z,100901.97
2023-04-11T19:42:32.992Z,100894.41
2023-04-11T19:47:39.477Z,100893.81
2023-04-11T19:52:44.004Z,100876.78
2023-04-11T19:57:47.722Z,100863.69
2023-04-11T20:02:52.979Z,100847.97
2023-04-11T20:07:56.749Z,100840.78
2023-04-11T20:13:00.560Z,100832.00
2023-04-11T20:18:05.917Z,100825.34
2023-04-11T20:23:10.464Z,100812.38
2023-04-11T20:28:14.186Z,100803.81
2023-04-11T20:33:19.274Z,100795.94
2023-04-11T20:38:23.474Z,100789.97
2023-04-11T20:43:27.247Z,100776.47
2023-04-11T20:48:32.487Z,100760.47
2023-04-11T20:53:36.257Z,100746.22
2023-04-11T20:58:40.738Z,100730.75
2023-04-11T21:03:47.015Z,100727.53
2023-04-11T21:08:51.382Z,100730.34
2023-04-11T21:13:55.788Z,100722.50
2023-04-11T21:19:01.249Z,100716.97
2023-04-11T21:24:07.762Z,100706.94
2023-04-11T21:29:12.050Z,100692.56
2023-04-11T21:34:17.202Z,100697.34
2023-04-11T21:39:21.201Z,100688.66
2023-04-11T21:44:25.034Z,100676.53
2023-04-11T21:49:30.163Z,100680.00
2023-04-11T21:54:34.852Z,100673.78
2023-04-11T21:59:39.181Z,100677.56
2023-04-11T22:05:01.004Z,100662.25
2023-04-11T22:10:12.761Z,100656.38
2023-04-11T22:15:18.176Z,100638.84
2023-04-11T22:20:23.324Z,100638.28
2023-04-11T22:25:27.081Z,100627.28
2023-04-11T22:30:30.852Z,100618.84
2023-04-11T22:35:35.901Z,100611.97
2023-04-11T22:40:40.209Z,100596.16
2023-04-11T22:45:46.727Z,100568.06
2023-04-11T22:50:55.327Z,100555.59
2023-04-11T22:55:59.035Z,100543.81
2023-04-11T23:01:02.781Z,100533.94
2023-04-11T23:06:08.874Z,100518.31
2023-04-11T23:11:12.698Z,100522.13
2023-04-11T23:16:16.390Z,100503.44
2023-04-11T23:21:21.448Z,100502.78
2023-04-11T23:26:25.277Z,100500.75
2023-04-11T23:31:28.974Z,100501.75
2023-04-11T23:36:34.535Z,100489.53
2023-04-11T23:41:38.252Z,100467.22
2023-04-11T23:46:42.172Z,100465.66
2023-04-11T23:51:47.342Z,100454.34
2023-04-11T23:56:51.014Z,100435.56
